sensor_id;sensor_type;location;lat;lon;timestamp;temperature;humidity
14873;DHT22;7528;48.576;19.122;2023-06-10T00:04:51;19.00;94.40
14873;DHT22;7528;48.576;19.122;2023-06-10T00:09:54;19.00;94.30
14873;DHT22;7528;48.576;19.122;2023-06-10T00:14:59;19.00;94.10
14873;DHT22;7528;48.576;19.122;2023-06-10T00:20:02;18.90;94.30
14873;DHT22;7528;48.576;19.122;2023-06-10T00:25:10;18.90;94.40
14873;DHT22;7528;48.576;19.122;2023-06-10T00:30:14;18.90;94.50
14873;DHT22;7528;48.576;19.122;2023-06-10T00:35:17;18.90;94.70
14873;DHT22;7528;48.576;19.122;2023-06-10T00:40:19;18.90;94.70
14873;DHT22;7528;48.576;19.122;2023-06-10T00:45:23;18.90;94.50
14873;DHT22;7528;48.576;19.122;2023-06-10T00:50:26;18.80;94.30
14873;DHT22;7528;48.576;19.122;2023-06-10T00:55:28;18.80;94.60
14873;DHT22;7528;48.576;19.122;2023-06-10T01:00:32;18.80;94.90
14873;DHT22;7528;48.576;19.122;2023-06-10T01:05:37;18.80;95.10
14873;DHT22;7528;48.576;19.122;2023-06-10T01:10:43;18.80;94.90
14873;DHT22;7528;48.576;19.122;2023-06-10T01:15:47;18.70;95.10
14873;DHT22;7528;48.576;19.122;2023-06-10T01:26:17;18.60;94.90
14873;DHT22;7528;48.576;19.122;2023-06-10T01:31:31;18.60;94.30
14873;DHT22;7528;48.576;19.122;2023-06-10T01:36:37;18.60;94.40
14873;DHT22;7528;48.576;19.122;2023-06-10T01:41:44;18.60;94.20
14873;DHT22;7528;48.576;19.122;2023-06-10T01:46:46;18.60;94.20
14873;DHT22;7528;48.576;19.122;2023-06-10T01:51:49;18.60;94.20
14873;DHT22;7528;48.576;19.122;2023-06-10T01:56:53;18.50;93.80
14873;DHT22;7528;48.576;19.122;2023-06-10T02:01:56;18.50;94.10
14873;DHT22;7528;48.576;19.122;2023-06-10T02:06:58;18.40;94.30
14873;DHT22;7528;48.576;19.122;2023-06-10T02:12:07;18.50;94.40
14873;DHT22;7528;48.576;19.122;2023-06-10T02:17:11;18.50;94.00
14873;DHT22;7528;48.576;19.122;2023-06-10T02:22:16;18.50;93.90
14873;DHT22;7528;48.576;19.122;2023-06-10T02:27:21;18.50;94.10
14873;DHT22;7528;48.576;19.122;2023-06-10T02:32:23;18.50;94.30
14873;DHT22;7528;48.576;19.122;2023-06-10T02:37:27;18.50;94.40
14873;DHT22;7528;48.576;19.122;2023-06-10T02:42:32;18.50;94.30
14873;DHT22;7528;48.576;19.122;2023-06-10T02:47:37;18.50;94.40
14873;DHT22;7528;48.576;19.122;2023-06-10T02:52:41;18.50;94.30
14873;DHT22;7528;48.576;19.122;2023-06-10T02:57:47;18.50;94.80
14873;DHT22;7528;48.576;19.122;2023-06-10T03:02:50;18.50;94.50
14873;DHT22;7528;48.576;19.122;2023-06-10T03:07:57;18.50;94.40
14873;DHT22;7528;48.576;19.122;2023-06-10T03:13:02;18.50;94.30
14873;DHT22;7528;48.576;19.122;2023-06-10T03:18:05;18.50;94.40
14873;DHT22;7528;48.576;19.122;2023-06-10T03:23:09;18.50;94.70
14873;DHT22;7528;48.576;19.122;2023-06-10T03:28:13;18.60;94.80
14873;DHT22;7528;48.576;19.122;2023-06-10T03:33:16;18.50;94.90
14873;DHT22;7528;48.576;19.122;2023-06-10T03:38:20;18.60;95.00
14873;DHT22;7528;48.576;19.122;2023-06-10T03:43:24;18.60;95.10
14873;DHT22;7528;48.576;19.122;2023-06-10T03:48:27;18.60;95.00
14873;DHT22;7528;48.576;19.122;2023-06-10T03:53:29;18.60;94.80
14873;DHT22;7528;48.576;19.122;2023-06-10T03:58:33;18.70;94.80
14873;DHT22;7528;48.576;19.122;2023-06-10T04:03:36;18.70;95.00
14873;DHT22;7528;48.576;19.122;2023-06-10T04:08:40;18.70;94.60
14873;DHT22;7528;48.576;19.122;2023-06-10T04:13:44;18.70;94.50
14873;DHT22;7528;48.576;19.122;2023-06-10T04:18:47;18.70;94.60
14873;DHT22;7528;48.576;19.122;2023-06-10T04:23:52;18.70;94.70
14873;DHT22;7528;48.576;19.122;2023-06-10T04:28:56;18.70;94.70
14873;DHT22;7528;48.576;19.122;2023-06-10T04:33:59;18.70;94.40
14873;DHT22;7528;48.576;19.122;2023-06-10T04:39:03;18.70;94.30
14873;DHT22;7528;48.576;19.122;2023-06-10T04:44:08;18.70;93.90
14873;DHT22;7528;48.576;19.122;2023-06-10T04:49:11;18.80;93.60
14873;DHT22;7528;48.576;19.122;2023-06-10T04:54:15;18.90;93.80
14873;DHT22;7528;48.576;19.122;2023-06-10T04:59:19;18.90;94.10
14873;DHT22;7528;48.576;19.122;2023-06-10T05:04:22;18.90;94.10
14873;DHT22;7528;48.576;19.122;2023-06-10T05:09:24;19.00;94.20
14873;DHT22;7528;48.576;19.122;2023-06-10T05:14:28;19.10;94.20
14873;DHT22;7528;48.576;19.122;2023-06-10T05:19:31;19.10;94.10
14873;DHT22;7528;48.576;19.122;2023-06-10T05:24:33;19.20;93.80
14873;DHT22;7528;48.576;19.122;2023-06-10T05:29:37;19.20;93.80
14873;DHT22;7528;48.576;19.122;2023-06-10T05:34:41;19.20;94.00
14873;DHT22;7528;48.576;19.122;2023-06-10T05:39:43;19.30;94.30
14873;DHT22;7528;48.576;19.122;2023-06-10T05:44:47;19.40;94.30
14873;DHT22;7528;48.576;19.122;2023-06-10T05:49:50;19.60;93.60
14873;DHT22;7528;48.576;19.122;2023-06-10T05:54:52;19.70;93.40
14873;DHT22;7528;48.576;19.122;2023-06-10T05:59:56;19.80;92.00
14873;DHT22;7528;48.576;19.122;2023-06-10T06:04:59;19.90;91.00
14873;DHT22;7528;48.576;19.122;2023-06-10T06:10:02;20.00;91.30
14873;DHT22;7528;48.576;19.122;2023-06-10T06:15:07;20.00;91.10
14873;DHT22;7528;48.576;19.122;2023-06-10T06:20:11;20.20;89.80
14873;DHT22;7528;48.576;19.122;2023-06-10T06:25:13;20.30;90.30
14873;DHT22;7528;48.576;19.122;2023-06-10T06:30:17;20.40;90.60
14873;DHT22;7528;48.576;19.122;2023-06-10T06:35:20;20.40;89.20
14873;DHT22;7528;48.576;19.122;2023-06-10T06:40:22;20.40;90.00
14873;DHT22;7528;48.576;19.122;2023-06-10T06:45:26;20.60;90.40
14873;DHT22;7528;48.576;19.122;2023-06-10T06:50:29;20.90;89.10
14873;DHT22;7528;48.576;19.122;2023-06-10T06:55:31;21.10;88.80
14873;DHT22;7528;48.576;19.122;2023-06-10T07:00:36;21.20;87.10
14873;DHT22;7528;48.576;19.122;2023-06-10T07:05:38;21.40;86.10
14873;DHT22;7528;48.576;19.122;2023-06-10T22:33:33;18.90;99.90
14873;DHT22;7528;48.576;19.122;2023-06-10T22:38:36;19.30;99.90
14873;DHT22;7528;48.576;19.122;2023-06-10T22:43:38;19.90;98.10
14873;DHT22;7528;48.576;19.122;2023-06-10T22:48:42;20.20;96.30
14873;DHT22;7528;48.576;19.122;2023-06-10T22:53:45;20.40;95.30
14873;DHT22;7528;48.576;19.122;2023-06-10T22:58:47;20.40;94.80
14873;DHT22;7528;48.576;19.122;2023-06-10T23:03:51;20.50;94.30
14873;DHT22;7528;48.576;19.122;2023-06-10T23:08:53;20.50;94.20
14873;DHT22;7528;48.576;19.122;2023-06-10T23:13:56;20.50;94.20
14873;DHT22;7528;48.576;19.122;2023-06-10T23:19:00;20.40;94.00
14873;DHT22;7528;48.576;19.122;2023-06-10T23:24:03;20.50;94.10
14873;DHT22;7528;48.576;19.122;2023-06-10T23:29:06;20.40;94.00
14873;DHT22;7528;48.576;19.122;2023-06-10T23:34:10;20.40;93.90
14873;DHT22;7528;48.576;19.122;2023-06-10T23:39:13;20.40;93.90
14873;DHT22;7528;48.576;19.122;2023-06-10T23:44:16;20.40;93.90
14873;DHT22;7528;48.576;19.122;2023-06-10T23:49:19;20.40;94.00
14873;DHT22;7528;48.576;19.122;2023-06-10T23:54:22;20.30;94.10
14873;DHT22;7528;48.576;19.122;2023-06-10T23:59:25;20.30;94.10
